CST,Max TemperatureF,Mean TemperatureF,Min TemperatureF,Max Dew PointF,MeanDew PointF,Min DewpointF,Max Humidity, Mean Humidity, Min Humidity, Max Sea Level PressureIn, Mean Sea Level PressureIn, Min Sea Level PressureIn, Max VisibilityMiles, Mean VisibilityMiles, Min VisibilityMiles, Max Wind SpeedMPH, Mean Wind SpeedMPH, Max Gust SpeedMPH,PrecipitationIn, CloudCover, Events, WindDirDegrees
2013-11-1,44,35,26,37,34,27,100,92,61,29.97,29.79,29.58,10,10,3,24,14,32,0.00,4,Rain,303
2013-11-2,51,37,23,34,26,19,100,71,28,30.00,29.91,29.70,10,10,10,16,9,22,0.00,1,,207
2013-11-3,53,42,30,37,31,28,100,73,47,29.70,29.56,29.49,10,10,10,20,12,29,0.00,1,,230
2013-11-4,33,25,17,28,20,16,93,75,60,30.00,29.81,29.61,10,10,10,29,21,39,0.00,7,,279
2013-11-5,33,24,14,21,17,12,100,81,52,30.12,30.06,30.00,10,10,10,16,10,24,0.00,1,,262
2013-11-6,37,26,14,27,19,10,100,82,48,30.18,30.05,29.98,10,10,10,12,5,,0.00,3,,282
2013-11-7,42,32,23,25,22,19,86,71,39,30.20,30.11,29.89,10,10,10,16,10,22,0.00,3,,269
2013-11-8,44,38,32,45,34,25,100,90,65,29.88,29.64,29.53,10,10,3,23,13,36,0.00,8,Rain,240
2013-11-9,32,24,15,32,23,16,100,88,75,30.23,30.07,29.78,10,10,9,28,18,39,0.00,5,,296
2013-11-10,30,22,12,28,16,0,100,77,46,30.40,30.21,30.08,10,10,10,20,9,24,0.00,6,,344
2013-11-11,21,10,-2,9,-1,-13,100,67,23,30.60,30.54,30.40,10,10,10,13,7,,0.00,0,,274
2013-11-12,46,28,10,34,23,9,100,88,50,30.55,30.30,29.99,10,10,10,14,7,18,0.00,0,,207
2013-11-13,55,44,32,36,34,30,100,77,41,29.99,29.90,29.81,10,10,10,18,11,28,0.00,2,,272
2013-11-14,44,32,19,37,32,19,100,97,76,29.86,29.79,29.70,10,8,0,20,11,25,0.00,3,Fog-Rain,282
2013-11-15,48,32,17,37,26,18,100,80,43,29.70,29.46,29.30,10,9,0,16,6,21,0.00,2,Fog,213
2013-11-16,37,32,28,37,33,27,100,98,65,29.39,29.30,29.27,10,8,1,13,5,16,0.27,6,Rain-Snow,232
2013-11-17,28,26,23,28,25,23,100,100,93,29.93,29.69,29.40,10,10,3,13,9,18,0.33,8,Rain-Snow,360
2013-11-18,37,22,8,34,24,9,100,98,81,29.99,29.93,29.81,10,10,1,15,5,,0.00,2,,170
2013-11-19,42,30,17,36,29,16,100,95,70,29.81,29.60,29.45,10,10,10,18,7,28,0.00,2,,188
2013-11-20,17,8,0,16,8,-2,100,89,78,30.36,30.00,29.69,10,8,0,20,14,31,13.28,6,Snow,333
2013-11-21,14,0,-13,7,-4,-17,92,78,67,30.54,30.44,30.33,10,10,10,21,10,25,0.00,1,,254
2013-11-22,14,-1,-16,12,-1,-20,93,78,61,30.75,30.55,30.33,10,10,4,17,10,22,0.03,4,Snow,335
2013-11-23,19,-2,-20,16,0,-26,100,92,76,30.75,30.54,30.16,10,9,0,18,5,16,0.00,3,Fog,176
2013-11-24,35,25,15,28,22,14,93,80,69,30.14,29.91,29.82,10,10,10,22,12,26,0.00,0,,261
2013-11-25,28,21,10,25,21,10,100,89,80,30.31,30.13,29.96,10,10,10,25,17,39,0.00,4,Rain,317
2013-11-26,19,10,1,16,7,0,100,86,63,30.44,30.34,30.16,10,10,10,13,7,17,0.00,2,,274
2013-11-27,26,20,14,25,19,12,100,88,80,30.18,29.99,29.84,10,10,10,24,14,33,0.00,5,Rain-Snow,305
2013-11-28,23,19,15,19,16,14,100,94,80,30.31,30.23,30.11,10,10,10,15,9,20,0.00,6,Snow,110
2013-11-29,32,24,15,28,22,16,100,96,75,30.10,29.96,29.90,10,10,10,16,10,22,0.00,4,,226
2013-11-30,37,26,14,30,25,14,100,94,70,30.12,30.08,30.00,10,10,10,10,5,,0.00,4,,312